sensor_id;sensor_type;location;lat;lon;timestamp;pressure;altitude;pressure_sealevel;temperature;humidity
9474;BME280;8865;47.636;7.692;2024-02-26T00:00:00;96294.16;;;8.71;100.00
9474;BME280;8865;47.636;7.692;2024-02-26T00:02:27;96289.72;;;8.80;100.00
9474;BME280;8865;47.636;7.692;2024-02-26T00:04:53;96291.00;;;8.84;100.00
9474;BME280;8865;47.636;7.692;2024-02-26T00:07:19;96297.53;;;8.88;100.00
9474;BME280;8865;47.636;7.692;2024-02-26T00:09:45;96304.91;;;8.76;100.00
9474;BME280;8865;47.636;7.692;2024-02-26T00:12:11;96301.50;;;8.67;100.00
9474;BME280;8865;47.636;7.692;2024-02-26T00:14:37;96301.00;;;8.72;100.00
9474;BME280;8865;47.636;7.692;2024-02-26T00:17:03;96281.91;;;8.71;100.00
9474;BME280;8865;47.636;7.692;2024-02-26T00:19:29;96286.97;;;8.73;100.00
9474;BME280;8865;47.636;7.692;2024-02-26T00:21:55;96288.97;;;8.63;100.00
9474;BME280;8865;47.636;7.692;2024-02-26T00:24:21;96284.75;;;8.62;100.00
9474;BME280;8865;47.636;7.692;2024-02-26T00:26:47;96294.19;;;8.63;100.00
9474;BME280;8865;47.636;7.692;2024-02-26T00:29:19;96291.56;;;8.63;100.00
9474;BME280;8865;47.636;7.692;2024-02-26T00:31:45;96294.84;;;8.56;100.00
9474;BME280;8865;47.636;7.692;2024-02-26T00:34:11;96280.22;;;8.39;100.00
9474;BME280;8865;47.636;7.692;2024-02-26T00:36:37;96265.56;;;8.30;100.00
9474;BME280;8865;47.636;7.692;2024-02-26T00:39:03;96249.44;;;8.18;100.00
9474;BME280;8865;47.636;7.692;2024-02-26T00:41:29;96252.38;;;8.15;100.00
9474;BME280;8865;47.636;7.692;2024-02-26T00:43:55;96262.16;;;8.21;100.00
9474;BME280;8865;47.636;7.692;2024-02-26T00:46:21;96266.19;;;8.32;100.00
9474;BME280;8865;47.636;7.692;2024-02-26T00:48:47;96272.38;;;8.39;100.00
9474;BME280;8865;47.636;7.692;2024-02-26T00:51:13;96270.56;;;8.39;100.00
9474;BME280;8865;47.636;7.692;2024-02-26T00:53:39;96271.38;;;8.40;100.00
9474;BME280;8865;47.636;7.692;2024-02-26T00:56:05;96275.16;;;8.46;100.00
9474;BME280;8865;47.636;7.692;2024-02-26T00:58:32;96279.06;;;8.50;100.00
9474;BME280;8865;47.636;7.692;2024-02-26T01:00:58;96291.13;;;8.51;100.00
9474;BME280;8865;47.636;7.692;2024-02-26T01:03:24;96288.03;;;8.47;100.00
9474;BME280;8865;47.636;7.692;2024-02-26T01:05:51;96289.34;;;8.51;100.00
9474;BME280;8865;47.636;7.692;2024-02-26T01:08:17;96276.13;;;8.53;100.00
9474;BME280;8865;47.636;7.692;2024-02-26T01:10:43;96274.47;;;8.52;100.00
9474;BME280;8865;47.636;7.692;2024-02-26T01:13:09;96267.63;;;8.43;100.00
9474;BME280;8865;47.636;7.692;2024-02-26T01:15:35;96271.75;;;8.45;100.00
9474;BME280;8865;47.636;7.692;2024-02-26T01:18:01;96266.81;;;8.50;100.00
9474;BME280;8865;47.636;7.692;2024-02-26T01:20:27;96280.53;;;8.52;100.00
9474;BME280;8865;47.636;7.692;2024-02-26T01:22:53;96279.41;;;8.47;100.00
9474;BME280;8865;47.636;7.692;2024-02-26T01:25:19;96287.38;;;8.53;100.00
9474;BME280;8865;47.636;7.692;2024-02-26T01:27:45;96287.53;;;8.60;100.00
9474;BME280;8865;47.636;7.692;2024-02-26T01:30:11;96298.59;;;8.62;100.00
9474;BME280;8865;47.636;7.692;2024-02-26T01:32:37;96300.72;;;8.58;100.00
9474;BME280;8865;47.636;7.692;2024-02-26T01:35:03;96301.72;;;8.57;100.00
9474;BME280;8865;47.636;7.692;2024-02-26T01:37:30;96307.91;;;8.56;100.00
9474;BME280;8865;47.636;7.692;2024-02-26T01:39:55;96291.94;;;8.51;100.00
9474;BME280;8865;47.636;7.692;2024-02-26T01:42:21;96285.44;;;8.31;100.00
9474;BME280;8865;47.636;7.692;2024-02-26T01:44:47;96294.41;;;8.28;100.00
9474;BME280;8865;47.636;7.692;2024-02-26T01:47:13;96308.72;;;8.32;100.00
9474;BME280;8865;47.636;7.692;2024-02-26T01:49:40;96314.44;;;8.36;100.00
9474;BME280;8865;47.636;7.692;2024-02-26T01:52:07;96322.09;;;8.37;100.00
9474;BME280;8865;47.636;7.692;2024-02-26T01:54:35;96326.31;;;8.38;100.00
9474;BME280;8865;47.636;7.692;2024-02-26T01:57:04;96318.50;;;8.38;100.00
9474;BME280;8865;47.636;7.692;2024-02-26T01:59:31;96311.19;;;8.42;100.00
9474;BME280;8865;47.636;7.692;2024-02-26T02:01:57;96297.66;;;8.30;100.00
9474;BME280;8865;47.636;7.692;2024-02-26T02:04:25;96281.88;;;8.23;100.00
9474;BME280;8865;47.636;7.692;2024-02-26T02:06:51;96274.38;;;8.12;100.00
9474;BME280;8865;47.636;7.692;2024-02-26T02:09:18;96272.44;;;8.06;100.00
9474;BME280;8865;47.636;7.692;2024-02-26T02:11:44;96265.44;;;7.98;100.00
9474;BME280;8865;47.636;7.692;2024-02-26T02:14:10;96252.13;;;7.77;100.00
9474;BME280;8865;47.636;7.692;2024-02-26T02:16:36;96253.28;;;7.74;100.00
9474;BME280;8865;47.636;7.692;2024-02-26T02:19:02;96259.94;;;7.52;100.00
9474;BME280;8865;47.636;7.692;2024-02-26T02:21:28;96262.06;;;7.40;100.00
9474;BME280;8865;47.636;7.692;2024-02-26T02:23:54;96273.13;;;7.42;100.00
9474;BME280;8865;47.636;7.692;2024-02-26T02:26:20;96285.66;;;7.47;100.00
9474;BME280;8865;47.636;7.692;2024-02-26T02:28:47;96291.34;;;7.42;100.00
9474;BME280;8865;47.636;7.692;2024-02-26T02:31:15;96296.56;;;7.42;100.00
9474;BME280;8865;47.636;7.692;2024-02-26T02:33:42;96295.28;;;7.46;100.00
9474;BME280;8865;47.636;7.692;2024-02-26T02:36:08;96294.75;;;7.43;100.00
9474;BME280;8865;47.636;7.692;2024-02-26T02:38:48;96291.34;;;7.50;100.00
9474;BME280;8865;47.636;7.692;2024-02-26T02:41:16;96293.97;;;7.59;100.00
9474;BME280;8865;47.636;7.692;2024-02-26T02:43:42;96294.94;;;7.66;100.00
9474;BME280;8865;47.636;7.692;2024-02-26T02:46:08;96299.50;;;7.72;100.00
9474;BME280;8865;47.636;7.692;2024-02-26T02:48:34;96302.28;;;7.79;100.00
9474;BME280;8865;47.636;7.692;2024-02-26T02:51:00;96295.28;;;7.79;100.00
9474;BME280;8865;47.636;7.692;2024-02-26T02:53:26;96293.16;;;7.83;100.00
9474;BME280;8865;47.636;7.692;2024-02-26T02:55:52;96303.75;;;7.81;100.00
9474;BME280;8865;47.636;7.692;2024-02-26T02:58:18;96303.09;;;7.79;100.00
9474;BME280;8865;47.636;7.692;2024-02-26T03:00:44;96306.03;;;7.76;100.00
9474;BME280;8865;47.636;7.692;2024-02-26T03:03:10;96313.69;;;7.78;100.00
9474;BME280;8865;47.636;7.692;2024-02-26T03:05:36;96320.03;;;7.83;100.00
9474;BME280;8865;47.636;7.692;2024-02-26T03:08:02;96321.81;;;7.83;100.00
9474;BME280;8865;47.636;7.692;2024-02-26T03:10:28;96331.13;;;7.85;100.00
9474;BME280;8865;47.636;7.692;2024-02-26T03:12:54;96334.53;;;7.78;100.00
9474;BME280;8865;47.636;7.692;2024-02-26T03:15:20;96328.84;;;7.82;100.00
9474;BME280;8865;47.636;7.692;2024-02-26T03:17:46;96330.97;;;7.79;100.00
9474;BME280;8865;47.636;7.692;2024-02-26T03:20:12;96321.81;;;7.83;100.00
9474;BME280;8865;47.636;7.692;2024-02-26T03:22:41;96326.72;;;7.86;100.00
9474;BME280;8865;47.636;7.692;2024-02-26T03:25:07;96323.13;;;7.87;100.00
9474;BME280;8865;47.636;7.692;2024-02-26T03:27:33;96326.72;;;7.86;100.00
9474;BME280;8865;47.636;7.692;2024-02-26T03:29:59;96331.13;;;7.85;100.00
9474;BME280;8865;47.636;7.692;2024-02-26T03:32:25;96338.59;;;7.89;100.00
9474;BME280;8865;47.636;7.692;2024-02-26T03:34:51;96336.00;;;7.89;100.00
9474;BME280;8865;47.636;7.692;2024-02-26T03:37:20;96336.63;;;7.91;100.00
9474;BME280;8865;47.636;7.692;2024-02-26T03:39:46;96349.66;;;7.91;100.00
9474;BME280;8865;47.636;7.692;2024-02-26T03:42:12;96343.97;;;7.87;100.00
9474;BME280;8865;47.636;7.692;2024-02-26T03:44:38;96350.16;;;7.86;100.00
9474;BME280;8865;47.636;7.692;2024-02-26T03:47:04;96365.97;;;7.84;100.00
9474;BME280;8865;47.636;7.692;2024-02-26T03:49:30;96365.16;;;7.84;100.00
9474;BME280;8865;47.636;7.692;2024-02-26T03:51:56;96361.06;;;7.81;100.00
9474;BME280;8865;47.636;7.692;2024-02-26T03:54:22;96357.50;;;7.82;100.00
9474;BME280;8865;47.636;7.692;2024-02-26T03:56:48;96361.06;;;7.81;100.00
9474;BME280;8865;47.636;7.692;2024-02-26T03:59:14;96363.84;;;7.80;100.00
9474;BME280;8865;47.636;7.692;2024-02-26T04:01:45;96366.44;;;7.72;100.00
9474;BME280;8865;47.636;7.692;2024-02-26T04:04:13;96361.56;;;7.68;100.00
9474;BME280;8865;47.636;7.692;2024-02-26T04:06:38;96364.81;;;7.71;100.00
9474;BME280;8865;47.636;7.692;2024-02-26T04:09:04;96369.22;;;7.70;100.00
9474;BME280;8865;47.636;7.692;2024-02-26T04:11:30;96384.69;;;7.72;100.00
9474;BME280;8865;47.636;7.692;2024-02-26T04:13:57;96376.72;;;7.73;100.00
9474;BME280;8865;47.636;7.692;2024-02-26T04:16:22;96380.91;;;7.66;100.00
9474;BME280;8865;47.636;7.692;2024-02-26T04:18:48;96382.25;;;7.62;100.00
9474;BME280;8865;47.636;7.692;2024-02-26T04:21:15;96393.28;;;7.56;100.00
9474;BME280;8865;47.636;7.692;2024-02-26T04:23:41;96377.66;;;7.56;100.00
9474;BME280;8865;47.636;7.692;2024-02-26T04:26:07;96373.03;;;7.33;100.00
9474;BME280;8865;47.636;7.692;2024-02-26T04:28:33;96392.94;;;7.42;100.00
9474;BME280;8865;47.636;7.692;2024-02-26T04:30:59;96382.19;;;7.45;100.00
9474;BME280;8865;47.636;7.692;2024-02-26T04:33:25;96394.09;;;7.48;100.00
9474;BME280;8865;47.636;7.692;2024-02-26T04:35:51;96393.72;;;7.43;100.00
9474;BME280;8865;47.636;7.692;2024-02-26T04:38:17;96392.94;;;7.42;100.00
9474;BME280;8865;47.636;7.692;2024-02-26T04:40:43;96397.16;;;7.43;100.00
9474;BME280;8865;47.636;7.692;2024-02-26T04:43:09;96383.50;;;7.49;100.00
9474;BME280;8865;47.636;7.692;2024-02-26T04:45:35;96384.63;;;7.47;100.00
9474;BME280;8865;47.636;7.692;2024-02-26T04:48:00;96376.00;;;7.46;100.00
9474;BME280;8865;47.636;7.692;2024-02-26T04:50:26;96374.06;;;7.40;100.00
9474;BME280;8865;47.636;7.692;2024-02-26T04:52:52;96355.75;;;7.24;100.00
9474;BME280;8865;47.636;7.692;2024-02-26T04:55:18;96359.13;;;7.08;100.00
9474;BME280;8865;47.636;7.692;2024-02-26T04:57:44;96363.34;;;7.01;100.00
9474;BME280;8865;47.636;7.692;2024-02-26T05:00:13;96370.97;;;7.02;100.00
9474;BME280;8865;47.636;7.692;2024-02-26T05:02:39;96357.59;;;6.97;100.00
9474;BME280;8865;47.636;7.692;2024-02-26T05:05:06;96354.50;;;6.93;100.00
9474;BME280;8865;47.636;7.692;2024-02-26T05:07:32;96360.34;;;6.87;100.00
9474;BME280;8865;47.636;7.692;2024-02-26T05:09:58;96361.16;;;6.88;100.00
9474;BME280;8865;47.636;7.692;2024-02-26T05:12:25;96365.81;;;6.76;100.00
9474;BME280;8865;47.636;7.692;2024-02-26T05:14:51;96365.06;;;6.84;100.00
9474;BME280;8865;47.636;7.692;2024-02-26T05:17:16;96375.47;;;6.84;100.00
9474;BME280;8865;47.636;7.692;2024-02-26T05:19:42;96367.97;;;6.81;100.00
9474;BME280;8865;47.636;7.692;2024-02-26T05:22:08;96371.38;;;6.81;100.00
9474;BME280;8865;47.636;7.692;2024-02-26T05:24:37;96371.03;;;6.76;100.00
9474;BME280;8865;47.636;7.692;2024-02-26T05:27:03;96366.97;;;6.82;100.00
9474;BME280;8865;47.636;7.692;2024-02-26T05:29:30;96372.53;;;6.87;100.00
9474;BME280;8865;47.636;7.692;2024-02-26T05:31:56;96367.69;;;7.00;100.00
9474;BME280;8865;47.636;7.692;2024-02-26T05:34:23;96372.28;;;7.06;100.00
9474;BME280;8865;47.636;7.692;2024-02-26T05:36:49;96371.03;;;7.19;100.00
9474;BME280;8865;47.636;7.692;2024-02-26T05:39:15;96370.88;;;7.20;100.00
9474;BME280;8865;47.636;7.692;2024-02-26T05:41:41;96365.81;;;7.19;100.00
9474;BME280;8865;47.636;7.692;2024-02-26T05:44:09;96363.03;;;7.12;100.00
9474;BME280;8865;47.636;7.692;2024-02-26T05:46:36;96362.22;;;7.11;100.00
9474;BME280;8865;47.636;7.692;2024-02-26T05:49:02;96360.97;;;7.24;100.00
9474;BME280;8865;47.636;7.692;2024-02-26T05:51:28;96355.25;;;7.20;100.00
9474;BME280;8865;47.636;7.692;2024-02-26T05:53:54;96349.72;;;7.23;100.00
9474;BME280;8865;47.636;7.692;2024-02-26T05:56:21;96353.34;;;7.30;100.00
9474;BME280;8865;47.636;7.692;2024-02-26T05:58:47;96349.94;;;7.38;100.00
9474;BME280;8865;47.636;7.692;2024-02-26T06:01:16;96349.94;;;7.38;100.00
9474;BME280;8865;47.636;7.692;2024-02-26T06:03:43;96353.69;;;7.44;100.00
9474;BME280;8865;47.636;7.692;2024-02-26T06:06:10;96359.88;;;7.35;100.00
9474;BME280;8865;47.636;7.692;2024-02-26T06:08:37;96353.50;;;7.37;100.00
9474;BME280;8865;47.636;7.692;2024-02-26T06:11:06;96354.50;;;7.44;100.00
9474;BME280;8865;47.636;7.692;2024-02-26T06:13:33;96364.91;;;7.44;100.00
9474;BME280;8865;47.636;7.692;2024-02-26T06:15:59;96360.03;;;7.41;100.00
9474;BME280;8865;47.636;7.692;2024-02-26T06:18:25;96363.00;;;7.46;100.00
9474;BME280;8865;47.636;7.692;2024-02-26T06:20:51;96361.34;;;7.45;100.00
9474;BME280;8865;47.636;7.692;2024-02-26T06:23:18;96366.88;;;7.50;100.00
9474;BME280;8865;47.636;7.692;2024-02-26T06:25:44;96375.06;;;7.56;100.00
9474;BME280;8865;47.636;7.692;2024-02-26T06:28:10;96374.06;;;7.57;100.00
9474;BME280;8865;47.636;7.692;2024-02-26T06:30:36;96376.50;;;7.58;100.00
9474;BME280;8865;47.636;7.692;2024-02-26T06:33:02;96378.16;;;7.59;100.00
9474;BME280;8865;47.636;7.692;2024-02-26T06:35:28;96378.78;;;7.61;100.00
9474;BME280;8865;47.636;7.692;2024-02-26T06:37:54;96374.91;;;7.57;100.00
9474;BME280;8865;47.636;7.692;2024-02-26T06:40:20;96383.50;;;7.49;100.00
9474;BME280;8865;47.636;7.692;2024-02-26T06:42:46;96385.75;;;7.44;100.00
9474;BME280;8865;47.636;7.692;2024-02-26T06:45:12;96388.03;;;7.47;100.00
9474;BME280;8865;47.636;7.692;2024-02-26T06:47:38;96397.81;;;7.45;100.00
9474;BME280;8865;47.636;7.692;2024-02-26T06:50:04;96389.19;;;7.45;100.00
9474;BME280;8865;47.636;7.692;2024-02-26T06:52:30;96398.78;;;7.44;100.00
9474;BME280;8865;47.636;7.692;2024-02-26T06:54:56;96408.41;;;7.44;100.00
9474;BME280;8865;47.636;7.692;2024-02-26T06:57:22;96409.34;;;7.43;100.00
9474;BME280;8865;47.636;7.692;2024-02-26T06:59:49;96400.59;;;7.44;100.00
9474;BME280;8865;47.636;7.692;2024-02-26T07:02:15;96404.00;;;7.44;100.00
9474;BME280;8865;47.636;7.692;2024-02-26T07:04:45;96423.38;;;7.42;100.00
9474;BME280;8865;47.636;7.692;2024-02-26T07:07:10;96405.81;;;7.52;100.00
9474;BME280;8865;47.636;7.692;2024-02-26T07:09:36;96405.31;;;7.57;100.00
9474;BME280;8865;47.636;7.692;2024-02-26T07:12:03;96407.44;;;7.61;100.00
9474;BME280;8865;47.636;7.692;2024-02-26T07:14:30;96402.28;;;7.69;100.00
9474;BME280;8865;47.636;7.692;2024-02-26T07:16:56;96390.84;;;7.71;100.00
9474;BME280;8865;47.636;7.692;2024-02-26T07:19:23;96392.81;;;7.68;100.00
9474;BME280;8865;47.636;7.692;2024-02-26T07:21:49;96399.50;;;7.71;100.00
9474;BME280;8865;47.636;7.692;2024-02-26T07:24:16;96403.25;;;7.77;100.00
9474;BME280;8865;47.636;7.692;2024-02-26T07:26:42;96399.50;;;7.79;100.00
9474;BME280;8865;47.636;7.692;2024-02-26T07:29:08;96415.63;;;7.83;100.00
9474;BME280;8865;47.636;7.692;2024-02-26T07:31:34;96418.59;;;7.88;100.00
9474;BME280;8865;47.636;7.692;2024-02-26T07:33:59;96422.00;;;7.89;100.00
9474;BME280;8865;47.636;7.692;2024-02-26T07:36:25;96425.28;;;7.99;100.00
9474;BME280;8865;47.636;7.692;2024-02-26T07:38:52;96423.00;;;8.12;100.00
9474;BME280;8865;47.636;7.692;2024-02-26T07:41:20;96406.53;;;8.12;100.00
9474;BME280;8865;47.636;7.692;2024-02-26T07:43:46;96402.47;;;8.09;100.00
9474;BME280;8865;47.636;7.692;2024-02-26T07:46:12;96409.97;;;8.20;100.00
9474;BME280;8865;47.636;7.692;2024-02-26T07:48:38;96408.66;;;8.25;100.00
9474;BME280;8865;47.636;7.692;2024-02-26T07:51:04;96412.22;;;8.40;100.00
9474;BME280;8865;47.636;7.692;2024-02-26T07:53:31;96422.06;;;8.54;100.00
9474;BME280;8865;47.636;7.692;2024-02-26T07:55:57;96424.16;;;8.67;100.00
9474;BME280;8865;47.636;7.692;2024-02-26T07:58:23;96429.19;;;8.85;100.00
9474;BME280;8865;47.636;7.692;2024-02-26T08:00:49;96422.44;;;9.07;100.00
9474;BME280;8865;47.636;7.692;2024-02-26T08:03:15;96421.88;;;9.28;100.00
9474;BME280;8865;47.636;7.692;2024-02-26T08:05:42;96425.06;;;9.47;100.00
9474;BME280;8865;47.636;7.692;2024-02-26T08:08:09;96410.00;;;9.57;100.00
9474;BME280;8865;47.636;7.692;2024-02-26T08:10:35;96401.47;;;9.63;100.00
9474;BME280;8865;47.636;7.692;2024-02-26T08:13:01;96392.47;;;9.66;100.00
9474;BME280;8865;47.636;7.692;2024-02-26T08:15:34;96391.69;;;9.57;100.00
9474;BME280;8865;47.636;7.692;2024-02-26T08:18:01;96404.03;;;9.40;100.00
9474;BME280;8865;47.636;7.692;2024-02-26T08:20:29;96404.84;;;9.41;100.00
9474;BME280;8865;47.636;7.692;2024-02-26T08:22:56;96404.09;;;9.24;100.00
9474;BME280;8865;47.636;7.692;2024-02-26T08:25:23;96407.69;;;9.23;100.00
9474;BME280;8865;47.636;7.692;2024-02-26T08:27:49;96411.25;;;9.30;100.00
9474;BME280;8865;47.636;7.692;2024-02-26T08:30:16;96412.78;;;9.16;100.00
9474;BME280;8865;47.636;7.692;2024-02-26T08:32:45;96411.09;;;9.32;100.00
9474;BME280;8865;47.636;7.692;2024-02-26T08:35:11;96414.50;;;9.32;100.00
9474;BME280;8865;47.636;7.692;2024-02-26T08:37:37;96416.59;;;9.37;100.00
9474;BME280;8865;47.636;7.692;2024-02-26T08:40:04;96410.09;;;9.33;100.00
9474;BME280;8865;47.636;7.692;2024-02-26T08:42:30;96407.09;;;9.44;100.00
9474;BME280;8865;47.636;7.692;2024-02-26T08:44:56;96397.91;;;9.56;100.00
9474;BME280;8865;47.636;7.692;2024-02-26T08:47:26;96407.66;;;9.62;100.00
9474;BME280;8865;47.636;7.692;2024-02-26T08:49:53;96405.44;;;9.51;100.00
9474;BME280;8865;47.636;7.692;2024-02-26T08:52:20;96400.34;;;9.58;100.00
9474;BME280;8865;47.636;7.692;2024-02-26T08:54:47;96415.84;;;9.59;100.00
9474;BME280;8865;47.636;7.692;2024-02-26T08:57:13;96410.78;;;9.66;100.00
9474;BME280;8865;47.636;7.692;2024-02-26T08:59:39;96413.38;;;9.66;100.00
9474;BME280;8865;47.636;7.692;2024-02-26T09:02:05;96413.91;;;9.61;100.00
9474;BME280;8865;47.636;7.692;2024-02-26T09:04:31;96422.72;;;9.60;100.00
9474;BME280;8865;47.636;7.692;2024-02-26T09:06:57;96416.50;;;9.61;100.00
9474;BME280;8865;47.636;7.692;2024-02-26T09:09:23;96415.81;;;9.68;100.00
9474;BME280;8865;47.636;7.692;2024-02-26T09:11:50;96412.34;;;9.75;100.00
9474;BME280;8865;47.636;7.692;2024-02-26T09:14:18;96418.97;;;9.86;100.00
9474;BME280;8865;47.636;7.692;2024-02-26T09:16:44;96430.53;;;10.15;100.00
9474;BME280;8865;47.636;7.692;2024-02-26T09:19:10;96422.06;;;10.36;100.00
9474;BME280;8865;47.636;7.692;2024-02-26T09:21:36;96432.94;;;10.48;100.00
9474;BME280;8865;47.636;7.692;2024-02-26T09:24:02;96429.25;;;10.57;100.00
9474;BME280;8865;47.636;7.692;2024-02-26T09:26:29;96443.59;;;10.84;100.00
9474;BME280;8865;47.636;7.692;2024-02-26T09:28:55;96439.69;;;11.10;100.00
9474;BME280;8865;47.636;7.692;2024-02-26T09:31:21;96438.63;;;11.19;100.00
9474;BME280;8865;47.636;7.692;2024-02-26T09:33:47;96425.94;;;11.38;100.00
9474;BME280;8865;47.636;7.692;2024-02-26T09:36:13;96432.53;;;11.49;100.00
9474;BME280;8865;47.636;7.692;2024-02-26T09:38:40;96427.41;;;11.40;100.00
9474;BME280;8865;47.636;7.692;2024-02-26T09:41:06;96421.81;;;10.99;100.00
9474;BME280;8865;47.636;7.692;2024-02-26T09:43:34;96415.41;;;11.16;100.00
9474;BME280;8865;47.636;7.692;2024-02-26T09:46:02;96423.78;;;11.41;100.00
9474;BME280;8865;47.636;7.692;2024-02-26T09:48:29;96419.13;;;11.73;100.00
9474;BME280;8865;47.636;7.692;2024-02-26T09:50:56;96419.50;;;12.07;100.00
9474;BME280;8865;47.636;7.692;2024-02-26T09:53:22;96420.97;;;12.38;100.00
9474;BME280;8865;47.636;7.692;2024-02-26T09:55:48;96420.56;;;12.62;100.00
9474;BME280;8865;47.636;7.692;2024-02-26T09:58:15;96421.41;;;12.63;100.00
9474;BME280;8865;47.636;7.692;2024-02-26T10:00:49;96420.03;;;12.67;100.00
9474;BME280;8865;47.636;7.692;2024-02-26T10:03:18;96430.03;;;12.57;100.00
9474;BME280;8865;47.636;7.692;2024-02-26T10:05:48;96431.00;;;12.49;100.00
9474;BME280;8865;47.636;7.692;2024-02-26T10:08:16;96431.09;;;12.91;100.00
9474;BME280;8865;47.636;7.692;2024-02-26T10:10:44;96419.88;;;13.45;100.00
9474;BME280;8865;47.636;7.692;2024-02-26T10:13:10;96414.03;;;14.45;100.00
9474;BME280;8865;47.636;7.692;2024-02-26T10:15:37;96409.56;;;16.41;100.00
9474;BME280;8865;47.636;7.692;2024-02-26T10:18:07;96410.03;;;19.25;89.64
9474;BME280;8865;47.636;7.692;2024-02-26T10:20:33;96415.78;;;21.56;62.29
9474;BME280;8865;47.636;7.692;2024-02-26T10:23:03;96422.38;;;22.20;53.08
9474;BME280;8865;47.636;7.692;2024-02-26T10:25:29;96422.47;;;20.80;53.33
9474;BME280;8865;47.636;7.692;2024-02-26T10:27:59;96428.94;;;20.39;55.98
9474;BME280;8865;47.636;7.692;2024-02-26T10:30:28;96430.88;;;20.43;56.01
9474;BME280;8865;47.636;7.692;2024-02-26T10:32:55;96443.38;;;19.97;54.87
9474;BME280;8865;47.636;7.692;2024-02-26T10:35:21;96441.44;;;19.80;58.52
9474;BME280;8865;47.636;7.692;2024-02-26T10:37:49;96439.91;;;20.42;58.37
9474;BME280;8865;47.636;7.692;2024-02-26T10:40:15;96452.94;;;19.98;52.34
9474;BME280;8865;47.636;7.692;2024-02-26T10:42:42;96452.16;;;18.98;53.97
9474;BME280;8865;47.636;7.692;2024-02-26T10:45:09;96447.47;;;18.15;55.13
9474;BME280;8865;47.636;7.692;2024-02-26T10:47:36;96446.09;;;16.76;60.62
9474;BME280;8865;47.636;7.692;2024-02-26T10:50:04;96444.72;;;17.18;67.22
9474;BME280;8865;47.636;7.692;2024-02-26T10:52:34;96449.69;;;17.07;62.10
9474;BME280;8865;47.636;7.692;2024-02-26T10:55:05;96454.94;;;17.14;63.36
9474;BME280;8865;47.636;7.692;2024-02-26T10:57:38;96452.94;;;16.27;64.29
9474;BME280;8865;47.636;7.692;2024-02-26T11:00:06;96447.72;;;16.14;69.74
9474;BME280;8865;47.636;7.692;2024-02-26T11:02:33;96442.31;;;16.34;78.19
9474;BME280;8865;47.636;7.692;2024-02-26T11:05:04;96444.56;;;15.98;73.51
9474;BME280;8865;47.636;7.692;2024-02-26T11:07:31;96441.06;;;15.59;76.83
9474;BME280;8865;47.636;7.692;2024-02-26T11:09:59;96441.06;;;15.52;90.22
9474;BME280;8865;47.636;7.692;2024-02-26T11:12:27;96443.63;;;15.07;89.31
9474;BME280;8865;47.636;7.692;2024-02-26T11:14:55;96434.97;;;14.87;90.00
9474;BME280;8865;47.636;7.692;2024-02-26T11:17:26;96434.34;;;14.78;94.47
9474;BME280;8865;47.636;7.692;2024-02-26T11:19:55;96439.97;;;14.48;90.67
9474;BME280;8865;47.636;7.692;2024-02-26T11:22:21;96447.56;;;13.83;94.57
9474;BME280;8865;47.636;7.692;2024-02-26T11:24:48;96446.53;;;13.77;95.90
9474;BME280;8865;47.636;7.692;2024-02-26T11:27:16;96453.03;;;13.88;100.00
9474;BME280;8865;47.636;7.692;2024-02-26T11:29:47;96454.59;;;13.75;99.92
9474;BME280;8865;47.636;7.692;2024-02-26T11:32:15;96446.66;;;14.31;95.86
9474;BME280;8865;47.636;7.692;2024-02-26T11:34:42;96443.44;;;14.49;98.40
9474;BME280;8865;47.636;7.692;2024-02-26T11:37:12;96438.38;;;14.47;99.85
9474;BME280;8865;47.636;7.692;2024-02-26T11:39:42;96433.09;;;14.47;98.65
9474;BME280;8865;47.636;7.692;2024-02-26T11:42:09;96421.38;;;14.70;100.00
9474;BME280;8865;47.636;7.692;2024-02-26T11:44:35;96421.34;;;15.03;93.43
9474;BME280;8865;47.636;7.692;2024-02-26T11:47:21;96418.16;;;15.53;88.48
9474;BME280;8865;47.636;7.692;2024-02-26T11:49:48;96433.75;;;15.61;85.19
9474;BME280;8865;47.636;7.692;2024-02-26T11:52:15;96438.16;;;15.74;87.54
9474;BME280;8865;47.636;7.692;2024-02-26T11:54:49;96434.16;;;16.67;83.05
9474;BME280;8865;47.636;7.692;2024-02-26T11:57:29;96434.28;;;17.60;71.94
9474;BME280;8865;47.636;7.692;2024-02-26T11:59:56;96438.59;;;18.64;67.29
9474;BME280;8865;47.636;7.692;2024-02-26T12:05:17;96440.38;;;19.05;57.99
9474;BME280;8865;47.636;7.692;2024-02-26T12:07:46;96439.00;;;19.26;54.64
9474;BME280;8865;47.636;7.692;2024-02-26T12:10:24;96427.28;;;20.83;50.09
9474;BME280;8865;47.636;7.692;2024-02-26T12:13:06;96434.41;;;22.22;46.71
9474;BME280;8865;47.636;7.692;2024-02-26T12:15:37;96444.69;;;23.06;42.54
9474;BME280;8865;47.636;7.692;2024-02-26T12:18:08;96438.09;;;23.61;39.46
9474;BME280;8865;47.636;7.692;2024-02-26T12:20:37;96445.31;;;23.61;39.19
9474;BME280;8865;47.636;7.692;2024-02-26T12:23:04;96448.19;;;23.49;39.76
9474;BME280;8865;47.636;7.692;2024-02-26T12:25:30;96450.66;;;22.21;39.46
9474;BME280;8865;47.636;7.692;2024-02-26T12:27:57;96443.19;;;21.34;41.89
9474;BME280;8865;47.636;7.692;2024-02-26T12:30:23;96444.94;;;20.90;42.39
9474;BME280;8865;47.636;7.692;2024-02-26T12:32:52;96440.59;;;20.66;44.57
9474;BME280;8865;47.636;7.692;2024-02-26T12:35:25;96438.88;;;20.60;43.81
9474;BME280;8865;47.636;7.692;2024-02-26T12:37:53;96431.63;;;20.39;47.44
9474;BME280;8865;47.636;7.692;2024-02-26T12:40:20;96425.09;;;20.01;46.15
9474;BME280;8865;47.636;7.692;2024-02-26T12:42:46;96428.19;;;20.09;45.57
9474;BME280;8865;47.636;7.692;2024-02-26T12:45:13;96422.41;;;20.29;48.44
9474;BME280;8865;47.636;7.692;2024-02-26T12:47:43;96421.41;;;20.47;47.53
9474;BME280;8865;47.636;7.692;2024-02-26T12:50:10;96423.19;;;20.76;47.59
9474;BME280;8865;47.636;7.692;2024-02-26T12:52:39;96415.84;;;21.00;47.24
9474;BME280;8865;47.636;7.692;2024-02-26T12:55:06;96419.06;;;20.85;46.67
9474;BME280;8865;47.636;7.692;2024-02-26T12:57:37;96415.56;;;21.40;46.29
9474;BME280;8865;47.636;7.692;2024-02-26T13:00:07;96417.50;;;22.39;44.44
9474;BME280;8865;47.636;7.692;2024-02-26T13:02:36;96415.81;;;23.40;41.24
9474;BME280;8865;47.636;7.692;2024-02-26T13:05:04;96418.50;;;24.14;39.82
9474;BME280;8865;47.636;7.692;2024-02-26T13:07:31;96403.56;;;24.90;38.04
9474;BME280;8865;47.636;7.692;2024-02-26T13:09:57;96401.53;;;25.57;35.49
9474;BME280;8865;47.636;7.692;2024-02-26T13:12:23;96395.69;;;26.05;34.98
9474;BME280;8865;47.636;7.692;2024-02-26T13:15:00;96395.75;;;26.34;32.35
9474;BME280;8865;47.636;7.692;2024-02-26T13:17:26;96402.59;;;26.16;33.93
9474;BME280;8865;47.636;7.692;2024-02-26T13:19:54;96398.66;;;25.98;33.65